Time;durP1;ratioP1;P1;durP2;ratioP2;P2;SDS_P1;SDS_P2;PMS_P1;PMS_P2;Temp;Humidity;BMP_temperature;BMP_pressure;BME280_temperature;BME280_humidity;BME280_pressure;Samples;Min_cycle;Max_cycle;Signal;HPM_P1;HPM_P2
2021/12/16 00:02:19;;;;;;;;;;;22.40;53.70;;;;;;5072452;28;20273;-60
2021/12/16 00:05:14;;;;;;;;;;;22.40;53.70;;;;;;5073349;28;19932;-62
2021/12/16 00:07:44;;;;;;;;;;;22.40;53.70;;;;;;5072838;28;19919;-60
2021/12/16 00:10:23;;;;;;;;;;;22.40;53.70;;;;;;5072824;28;19963;-60
2021/12/16 00:34:12;;;;;;;;;;;22.30;53.60;;;;;;5072428;28;20291;-59
2021/12/16 00:36:42;;;;;;;;;;;22.30;53.60;;;;;;5072365;28;19938;-60
2021/12/16 00:39:09;;;;;;;;;;;22.30;53.60;;;;;;5072286;28;19912;-59
2021/12/16 00:41:36;;;;;;;;;;;22.30;53.60;;;;;;5072308;28;20317;-61
2021/12/16 00:44:11;;;;;;;;;;;22.30;53.60;;;;;;5072152;28;19909;-60
2021/12/16 00:46:58;;;;;;;;;;;22.30;53.60;;;;;;5071694;28;20405;-60
2021/12/16 00:54:38;;;;;;;;;;;22.20;53.60;;;;;;5072386;28;19931;-60
2021/12/16 00:57:11;;;;;;;;;;;22.30;53.60;;;;;;5072100;28;19916;-59
2021/12/16 00:59:39;;;;;;;;;;;22.20;53.50;;;;;;5071629;28;19916;-61
2021/12/16 01:02:29;;;;;;;;;;;22.20;53.50;;;;;;5072134;28;19915;-60
2021/12/16 01:08:03;;;;;;;;;;;22.20;53.50;;;;;;5072046;28;19923;-61
2021/12/16 01:33:38;;;;;;;;;;;22.20;53.50;;;;;;5072190;28;19920;-59
2021/12/16 01:35:24;;;;;;;;;;;22.10;53.40;;;;;;5071965;28;19916;-60
2021/12/16 01:38:22;;;;;;;;;;;22.10;53.40;;;;;;5071676;28;19913;-59
2021/12/16 01:46:25;;;;;;;;;;;22.10;53.40;;;;;;5071913;28;19915;-61
2021/12/16 01:52:02;;;;;;;;;;;22.10;53.40;;;;;;5071751;28;20007;-60
2021/12/16 01:54:35;;;;;;;;;;;22.10;53.40;;;;;;5067412;28;20246;-60
2021/12/16 01:57:18;;;;;;;;;;;22.00;53.30;;;;;;5071169;28;20269;-60
2021/12/16 01:59:46;;;;;;;;;;;22.00;53.30;;;;;;5071340;28;20495;-61
2021/12/16 02:02:29;;;;;;;;;;;22.00;53.30;;;;;;5072846;28;19959;-60
2021/12/16 02:05:17;;;;;;;;;;;22.00;53.30;;;;;;5075285;28;19965;-60
2021/12/16 02:10:10;;;;;;;;;;;22.00;53.40;;;;;;5075208;28;20308;-61
2021/12/16 02:31:56;;;;;;;;;;;21.90;53.20;;;;;;5074933;28;19909;-60
2021/12/16 02:34:32;;;;;;;;;;;21.90;53.30;;;;;;5074787;28;20276;-59
2021/12/16 02:36:58;;;;;;;;;;;21.90;53.20;;;;;;5074956;28;20029;-59
2021/12/16 02:39:26;;;;;;;;;;;21.90;53.30;;;;;;5074570;28;20604;-59
2021/12/16 02:41:56;;;;;;;;;;;21.90;53.30;;;;;;5074021;28;19912;-59
2021/12/16 02:44:31;;;;;;;;;;;21.90;53.30;;;;;;5074576;28;19963;-60
2021/12/16 02:49:47;;;;;;;;;;;21.90;53.30;;;;;;5074743;28;19915;-60
2021/12/16 02:52:14;;;;;;;;;;;21.90;53.30;;;;;;5074392;28;19948;-60
2021/12/16 02:54:39;;;;;;;;;;;21.90;53.30;;;;;;5074350;28;19916;-59
2021/12/16 02:57:05;;;;;;;;;;;21.90;53.20;;;;;;5073755;28;19916;-60
2021/12/16 02:59:32;;;;;;;;;;;21.90;53.30;;;;;;5074117;28;19919;-60
2021/12/16 03:02:01;;;;;;;;;;;21.90;53.20;;;;;;5074218;28;19912;-59
2021/12/16 03:04:28;;;;;;;;;;;21.90;53.20;;;;;;5056167;28;19915;-60
2021/12/16 03:06:57;;;;;;;;;;;21.90;53.20;;;;;;5074157;28;19924;-60
2021/12/16 03:09:47;;;;;;;;;;;21.90;53.30;;;;;;5074073;28;19999;-59
2021/12/16 03:12:42;;;;;;;;;;;21.90;53.20;;;;;;5074259;28;19956;-59
2021/12/16 03:18:21;;;;;;;;;;;21.80;53.20;;;;;;5052590;28;19908;-60
2021/12/16 03:20:51;;;;;;;;;;;21.80;53.20;;;;;;5073602;28;20261;-60
2021/12/16 03:26:48;;;;;;;;;;;21.80;53.20;;;;;;5073325;28;19909;-62
2021/12/16 03:32:07;;;;;;;;;;;21.80;53.20;;;;;;5074120;28;19912;-60
2021/12/16 03:37:15;;;;;;;;;;;21.80;53.20;;;;;;5073976;28;19989;-61
2021/12/16 03:39:43;;;;;;;;;;;21.80;53.20;;;;;;5072863;28;20026;-61
2021/12/16 03:42:09;;;;;;;;;;;21.80;53.20;;;;;;5073387;28;20009;-61
2021/12/16 03:44:52;;;;;;;;;;;21.70;53.20;;;;;;5073369;28;19979;-59
2021/12/16 03:47:20;;;;;;;;;;;21.80;53.20;;;;;;5073387;28;19999;-60
2021/12/16 03:49:46;;;;;;;;;;;21.70;53.10;;;;;;5073424;28;19909;-60
2021/12/16 03:52:11;;;;;;;;;;;21.70;53.10;;;;;;5073148;28;19908;-59
2021/12/16 03:54:41;;;;;;;;;;;21.70;53.10;;;;;;5072759;28;20388;-60
2021/12/16 03:57:07;;;;;;;;;;;21.70;53.10;;;;;;5073089;28;20434;-60
2021/12/16 03:59:34;;;;;;;;;;;21.70;53.10;;;;;;5073083;28;20019;-61
2021/12/16 04:02:01;;;;;;;;;;;21.70;53.10;;;;;;5072902;28;19909;-60
2021/12/16 04:04:26;;;;;;;;;;;21.70;53.10;;;;;;5072997;28;20007;-59
2021/12/16 04:06:53;;;;;;;;;;;21.70;53.20;;;;;;5072912;28;20390;-59
2021/12/16 04:09:18;;;;;;;;;;;21.70;53.20;;;;;;5072516;28;19909;-59
2021/12/16 04:11:55;;;;;;;;;;;21.70;53.10;;;;;;5054885;28;19916;-59
2021/12/16 04:14:21;;;;;;;;;;;21.70;53.10;;;;;;5072829;28;19912;-59
2021/12/16 04:16:48;;;;;;;;;;;21.60;53.00;;;;;;5072785;28;19961;-60
2021/12/16 04:19:20;;;;;;;;;;;21.70;53.10;;;;;;5072651;28;19920;-61
2021/12/16 04:22:05;;;;;;;;;;;21.60;53.00;;;;;;5072560;28;19909;-60
2021/12/16 04:24:31;;;;;;;;;;;21.60;53.00;;;;;;5071613;28;20373;-59
2021/12/16 04:26:57;;;;;;;;;;;21.60;53.00;;;;;;5072501;28;19909;-57
2021/12/16 04:29:23;;;;;;;;;;;21.60;53.00;;;;;;5072528;28;19939;-59
2021/12/16 04:31:49;;;;;;;;;;;21.70;53.10;;;;;;5072449;28;20446;-59
2021/12/16 04:34:14;;;;;;;;;;;21.60;53.00;;;;;;5072618;28;19951;-59
2021/12/16 04:36:40;;;;;;;;;;;21.60;53.00;;;;;;5071879;28;19915;-60
2021/12/16 04:39:08;;;;;;;;;;;21.60;53.10;;;;;;5072305;28;20293;-61
2021/12/16 04:41:34;;;;;;;;;;;21.60;53.10;;;;;;5072286;28;19920;-61
2021/12/16 04:44:02;;;;;;;;;;;21.60;53.10;;;;;;5072500;28;19909;-60
2021/12/16 04:46:28;;;;;;;;;;;21.60;53.10;;;;;;5072286;28;19920;-60
2021/12/16 04:48:55;;;;;;;;;;;21.60;53.10;;;;;;5072152;28;19966;-60
2021/12/16 04:51:23;;;;;;;;;;;21.60;53.10;;;;;;5071688;28;19909;-59
2021/12/16 04:53:49;;;;;;;;;;;21.60;53.10;;;;;;5072054;28;19982;-59
2021/12/16 04:56:15;;;;;;;;;;;21.60;53.30;;;;;;5071999;28;20368;-60
2021/12/16 04:58:41;;;;;;;;;;;21.60;53.00;;;;;;5072002;28;19917;-60
2021/12/16 05:01:07;;;;;;;;;;;21.60;53.10;;;;;;5071752;28;19920;-60
2021/12/16 05:03:33;;;;;;;;;;;21.50;53.00;;;;;;5072172;28;19916;-61
2021/12/16 05:05:59;;;;;;;;;;;21.60;53.10;;;;;;5071868;28;19912;-58
2021/12/16 05:08:24;;;;;;;;;;;21.50;53.00;;;;;;5071868;28;19991;-59
2021/12/16 05:10:52;;;;;;;;;;;21.50;53.00;;;;;;5071880;28;19920;-60
2021/12/16 05:13:22;;;;;;;;;;;21.50;53.00;;;;;;5072076;28;19908;-60
2021/12/16 05:15:48;;;;;;;;;;;21.50;53.00;;;;;;5071854;28;20331;-59
2021/12/16 05:18:19;;;;;;;;;;;21.50;53.00;;;;;;5071860;28;19927;-60
2021/12/16 05:20:46;;;;;;;;;;;21.50;53.00;;;;;;5071082;28;19975;-60
2021/12/16 05:26:16;;;;;;;;;;;21.50;53.00;;;;;;5071884;28;20042;-59
2021/12/16 05:28:52;;;;;;;;;;;21.50;53.00;;;;;;5071756;28;20268;-60
2021/12/16 05:31:19;;;;;;;;;;;21.50;53.00;;;;;;5071724;28;19919;-60
2021/12/16 05:33:44;;;;;;;;;;;21.40;53.00;;;;;;5071629;28;19955;-60
2021/12/16 05:36:10;;;;;;;;;;;21.50;53.00;;;;;;5072713;28;19951;-60
2021/12/16 05:38:36;;;;;;;;;;;21.50;53.00;;;;;;5075802;28;20428;-60
2021/12/16 05:41:03;;;;;;;;;;;21.40;52.90;;;;;;5075679;28;19916;-61
2021/12/16 05:43:29;;;;;;;;;;;21.40;53.00;;;;;;5057681;28;20000;-59
2021/12/16 05:45:56;;;;;;;;;;;21.40;53.00;;;;;;5075651;28;20343;-59
2021/12/16 05:48:23;;;;;;;;;;;21.40;53.00;;;;;;5075504;28;19992;-59
2021/12/16 05:50:52;;;;;;;;;;;21.40;52.90;;;;;;5074972;28;19909;-60
2021/12/16 05:53:17;;;;;;;;;;;21.40;52.90;;;;;;5075460;28;19920;-59
2021/12/16 05:55:43;;;;;;;;;;;21.40;53.00;;;;;;5075432;28;19909;-60
2021/12/16 05:58:10;;;;;;;;;;;21.40;53.00;;;;;;5075401;28;19958;-59
2021/12/16 06:00:40;;;;;;;;;;;21.40;53.00;;;;;;5075222;28;19927;-61
2021/12/16 06:03:06;;;;;;;;;;;21.40;53.00;;;;;;5075685;28;20007;-60
2021/12/16 06:05:32;;;;;;;;;;;21.40;53.00;;;;;;5074633;28;20664;-59
2021/12/16 06:07:57;;;;;;;;;;;21.40;52.90;;;;;;5075242;28;19915;-59
2021/12/16 06:11:14;;;;;;;;;;;21.40;53.00;;;;;;5075195;28;19908;-61
2021/12/16 06:13:09;;;;;;;;;;;21.40;52.90;;;;;;5060873;28;20299;-59
2021/12/16 06:29:36;;;;;;;;;;;21.40;52.80;;;;;;5013196;28;19921;-60
2021/12/16 06:32:02;;;;;;;;;;;21.40;52.80;;;;;;5012813;28;19960;-60
2021/12/16 06:34:27;;;;;;;;;;;21.40;52.80;;;;;;5012233;28;19913;-61
2021/12/16 06:36:53;;;;;;;;;;;21.40;52.80;;;;;;5012729;28;20004;-61
2021/12/16 06:39:18;;;;;;;;;;;21.40;52.80;;;;;;5012514;28;19910;-61
2021/12/16 06:41:44;;;;;;;;;;;21.40;52.80;;;;;;5012701;28;19913;-60
2021/12/16 06:44:36;;;;;;;;;;;21.40;52.80;;;;;;5012610;28;19909;-60
2021/12/16 06:47:02;;;;;;;;;;;21.40;52.80;;;;;;5012286;28;19981;-60
2021/12/16 06:49:29;;;;;;;;;;;21.40;52.80;;;;;;5011619;28;20012;-61
2021/12/16 06:51:59;;;;;;;;;;;21.40;52.80;;;;;;5012429;28;19914;-60
2021/12/16 06:54:29;;;;;;;;;;;21.40;52.80;;;;;;5012487;28;19963;-61
2021/12/16 06:57:21;;;;;;;;;;;21.40;52.80;;;;;;5014184;28;19914;-61
2021/12/16 07:00:06;;;;;;;;;;;21.40;52.80;;;;;;5074356;28;19917;-61
2021/12/16 07:04:57;;;;;;;;;;;21.40;52.80;;;;;;5074198;28;19912;-59
2021/12/16 07:07:22;;;;;;;;;;;21.40;52.80;;;;;;5074091;28;19995;-59
2021/12/16 07:09:48;;;;;;;;;;;21.40;52.80;;;;;;5074066;28;19908;-58
2021/12/16 07:12:13;;;;;;;;;;;21.50;52.80;;;;;;5074198;28;19919;-61
2021/12/16 07:14:40;;;;;;;;;;;21.50;52.80;;;;;;5073988;28;19994;-59
2021/12/16 07:17:08;;;;;;;;;;;21.50;52.90;;;;;;5073530;28;19917;-60
2021/12/16 07:19:34;;;;;;;;;;;21.50;52.90;;;;;;5073588;28;20167;-60
2021/12/16 07:22:00;;;;;;;;;;;21.50;52.90;;;;;;5073835;28;19908;-59
2021/12/16 07:24:26;;;;;;;;;;;21.50;52.90;;;;;;5073838;28;19985;-61
2021/12/16 07:26:51;;;;;;;;;;;21.50;52.80;;;;;;5073794;28;19970;-60
2021/12/16 07:29:17;;;;;;;;;;;21.50;52.80;;;;;;5073890;28;19908;-68
2021/12/16 07:31:42;;;;;;;;;;;21.50;52.80;;;;;;5073493;28;19913;-62
2021/12/16 07:34:09;;;;;;;;;;;21.50;52.80;;;;;;5073631;28;19916;-59
2021/12/16 07:36:36;;;;;;;;;;;21.50;52.80;;;;;;5073531;28;19966;-61
2021/12/16 07:39:03;;;;;;;;;;;21.50;52.80;;;;;;5073405;28;19916;-61
2021/12/16 07:41:32;;;;;;;;;;;21.50;52.80;;;;;;5073297;28;19916;-60
2021/12/16 07:44:11;;;;;;;;;;;21.50;52.80;;;;;;5073474;28;20011;-60
2021/12/16 07:46:41;;;;;;;;;;;21.50;52.80;;;;;;5072863;28;19916;-62
2021/12/16 07:49:08;;;;;;;;;;;21.50;52.80;;;;;;5073268;28;19912;-61
2021/12/16 07:51:34;;;;;;;;;;;21.50;52.80;;;;;;5073449;28;19912;-62
2021/12/16 07:53:59;;;;;;;;;;;21.50;52.80;;;;;;5073198;28;20038;-60
2021/12/16 07:56:25;;;;;;;;;;;21.50;52.80;;;;;;5073260;28;20360;-58
2021/12/16 07:58:50;;;;;;;;;;;21.50;52.80;;;;;;5072644;28;20394;-59
2021/12/16 08:01:16;;;;;;;;;;;21.50;52.80;;;;;;5071980;28;19920;-60
2021/12/16 08:03:43;;;;;;;;;;;21.60;52.90;;;;;;5073069;28;20322;-61
2021/12/16 08:06:10;;;;;;;;;;;21.60;52.90;;;;;;5072933;28;19958;-60
2021/12/16 08:08:36;;;;;;;;;;;21.60;53.50;;;;;;5072967;28;20365;-61
2021/12/16 08:11:02;;;;;;;;;;;21.60;52.90;;;;;;5072838;28;19947;-60
2021/12/16 08:13:28;;;;;;;;;;;21.60;53.00;;;;;;5080819;28;20011;-59
2021/12/16 08:15:53;;;;;;;;;;;21.60;53.00;;;;;;5088872;28;19999;-61
2021/12/16 08:18:19;;;;;;;;;;;21.60;53.00;;;;;;5092202;28;19916;-59
2021/12/16 08:20:44;;;;;;;;;;;21.60;53.00;;;;;;5090969;28;19966;-60
2021/12/16 08:23:10;;;;;;;;;;;21.60;53.00;;;;;;5092528;28;20321;-60
2021/12/16 08:25:36;;;;;;;;;;;21.60;53.00;;;;;;5092727;28;19916;-60
2021/12/16 08:28:03;;;;;;;;;;;21.60;53.00;;;;;;5092567;28;19908;-61
2021/12/16 08:30:30;;;;;;;;;;;21.60;53.00;;;;;;5092098;28;20288;-60
2021/12/16 08:32:56;;;;;;;;;;;21.60;53.10;;;;;;5092521;28;19948;-60
2021/12/16 08:35:22;;;;;;;;;;;21.60;53.10;;;;;;5109705;28;19918;-60
2021/12/16 08:37:47;;;;;;;;;;;21.60;53.10;;;;;;5112894;28;20003;-60
2021/12/16 08:40:22;;;;;;;;;;;21.60;53.10;;;;;;5101871;28;19916;-59
2021/12/16 08:42:48;;;;;;;;;;;21.60;53.10;;;;;;5090241;28;19962;-61
2021/12/16 08:45:16;;;;;;;;;;;21.60;53.10;;;;;;5098798;28;19912;-60
2021/12/16 08:47:42;;;;;;;;;;;21.60;53.10;;;;;;5074174;28;19912;-59
2021/12/16 08:50:08;;;;;;;;;;;21.60;53.10;;;;;;5092409;28;20383;-61
2021/12/16 08:52:34;;;;;;;;;;;21.60;53.10;;;;;;5092368;28;20391;-60
2021/12/16 08:55:00;;;;;;;;;;;21.70;53.10;;;;;;5090422;28;19908;-59
2021/12/16 08:57:26;;;;;;;;;;;21.60;53.10;;;;;;5093248;28;19908;-60
2021/12/16 08:59:51;;;;;;;;;;;21.60;53.10;;;;;;5091904;28;20360;-61
2021/12/16 09:02:19;;;;;;;;;;;21.70;53.10;;;;;;5112612;28;19908;-58
2021/12/16 09:04:45;;;;;;;;;;;21.70;53.70;;;;;;5112311;28;19916;-59
2021/12/16 09:07:11;;;;;;;;;;;21.70;53.10;;;;;;5112051;28;19912;-60
2021/12/16 09:09:37;;;;;;;;;;;21.70;53.10;;;;;;5112171;28;19908;-61
2021/12/16 09:12:10;;;;;;;;;;;21.70;53.10;;;;;;5112125;28;19953;-59
2021/12/16 09:14:37;;;;;;;;;;;21.70;53.10;;;;;;5102010;28;19908;-58
2021/12/16 09:17:04;;;;;;;;;;;21.70;53.10;;;;;;5091795;28;20007;-59
2021/12/16 09:19:30;;;;;;;;;;;21.70;53.10;;;;;;5091441;28;20007;-57
2021/12/16 09:21:57;;;;;;;;;;;21.70;53.10;;;;;;5091230;28;21184;-59
2021/12/16 09:24:23;;;;;;;;;;;21.70;53.10;;;;;;5091604;28;20002;-59
2021/12/16 09:26:48;;;;;;;;;;;21.70;53.10;;;;;;5091306;28;19915;-58
2021/12/16 09:29:14;;;;;;;;;;;21.70;53.10;;;;;;5091697;28;19919;-59
2021/12/16 09:31:39;;;;;;;;;;;21.70;53.20;;;;;;5091749;28;20319;-59
2021/12/16 09:34:08;;;;;;;;;;;21.70;53.10;;;;;;5091785;28;19908;-57
2021/12/16 09:36:35;;;;;;;;;;;21.70;53.20;;;;;;5091668;28;19919;-61
2021/12/16 09:39:01;;;;;;;;;;;21.70;53.80;;;;;;5091724;28;19912;-57
2021/12/16 09:41:27;;;;;;;;;;;21.70;53.20;;;;;;5091073;28;19922;-57
2021/12/16 09:43:54;;;;;;;;;;;21.70;53.80;;;;;;5091678;28;19912;-57
2021/12/16 09:46:21;;;;;;;;;;;21.70;53.20;;;;;;5091563;28;19912;-58
2021/12/16 09:48:47;;;;;;;;;;;21.70;53.20;;;;;;5091648;28;19915;-60
2021/12/16 09:51:16;;;;;;;;;;;21.70;53.20;;;;;;5091584;28;19912;-59
2021/12/16 09:53:43;;;;;;;;;;;21.70;53.20;;;;;;5091821;28;19954;-59
2021/12/16 09:56:09;;;;;;;;;;;21.70;53.20;;;;;;5091011;28;19923;-60
2021/12/16 09:58:37;;;;;;;;;;;21.70;53.30;;;;;;5091714;28;19912;-60
2021/12/16 10:01:03;;;;;;;;;;;21.70;53.30;;;;;;5091512;28;20031;-61
2021/12/16 10:03:28;;;;;;;;;;;21.70;53.30;;;;;;5091451;28;20361;-58
2021/12/16 10:05:54;;;;;;;;;;;21.70;53.30;;;;;;5091482;28;20010;-58
2021/12/16 10:08:19;;;;;;;;;;;21.70;53.30;;;;;;5091294;28;19922;-58
2021/12/16 10:10:45;;;;;;;;;;;21.70;53.30;;;;;;5096043;28;19991;-58
2021/12/16 10:13:13;;;;;;;;;;;21.70;53.30;;;;;;5111773;28;20384;-59
2021/12/16 10:18:07;;;;;;;;;;;21.80;53.40;;;;;;5111888;28;19919;-58
2021/12/16 10:20:35;;;;;;;;;;;21.80;53.40;;;;;;5111280;28;19923;-59
2021/12/16 10:23:06;;;;;;;;;;;21.80;53.40;;;;;;5113045;28;20358;-58
2021/12/16 10:25:34;;;;;;;;;;;21.80;53.40;;;;;;5114790;28;20045;-71
2021/12/16 10:28:05;;;;;;;;;;;21.80;53.40;;;;;;5115418;28;19954;-58
2021/12/16 10:30:39;;;;;;;;;;;21.80;53.40;;;;;;5115153;28;19912;-58
2021/12/16 10:33:12;;;;;;;;;;;21.80;53.40;;;;;;5106159;28;19916;-59
2021/12/16 10:35:38;;;;;;;;;;;21.80;53.40;;;;;;5094746;28;19912;-59
2021/12/16 10:38:05;;;;;;;;;;;21.80;53.40;;;;;;5094862;28;19919;-60
2021/12/16 10:40:43;;;;;;;;;;;21.80;53.40;;;;;;5094067;28;19961;-60
2021/12/16 10:43:13;;;;;;;;;;;21.80;53.40;;;;;;5076676;28;19916;-59
2021/12/16 10:45:44;;;;;;;;;;;21.80;53.50;;;;;;5094616;28;19908;-59
2021/12/16 10:48:12;;;;;;;;;;;21.80;53.50;;;;;;5094636;28;19912;-58
2021/12/16 10:50:48;;;;;;;;;;;21.80;53.50;;;;;;5076384;28;19912;-58
2021/12/16 10:53:14;;;;;;;;;;;21.80;53.50;;;;;;5094503;28;19977;-59
2021/12/16 10:55:59;;;;;;;;;;;21.80;53.60;;;;;;5093979;28;20299;-60
2021/12/16 10:58:43;;;;;;;;;;;21.80;53.50;;;;;;5094336;28;19919;-59
2021/12/16 11:01:28;;;;;;;;;;;21.80;53.50;;;;;;5094289;28;19916;-59
2021/12/16 11:03:53;;;;;;;;;;;21.90;53.60;;;;;;5094652;28;19912;-59
2021/12/16 11:06:26;;;;;;;;;;;21.90;53.60;;;;;;5094176;28;19972;-59
2021/12/16 11:08:51;;;;;;;;;;;21.90;53.60;;;;;;5093698;28;20260;-59
2021/12/16 11:11:24;;;;;;;;;;;21.90;53.60;;;;;;5094111;28;20050;-60
2021/12/16 11:13:51;;;;;;;;;;;21.90;53.50;;;;;;5094318;28;19919;-60
2021/12/16 11:16:28;;;;;;;;;;;21.90;53.60;;;;;;5094266;28;19908;-61
2021/12/16 11:18:54;;;;;;;;;;;21.90;53.50;;;;;;5094045;28;19908;-61
2021/12/16 11:21:19;;;;;;;;;;;21.90;53.50;;;;;;5093927;28;19934;-62
2021/12/16 11:23:45;;;;;;;;;;;21.90;53.50;;;;;;5088596;28;19919;-61
2021/12/16 11:26:12;;;;;;;;;;;21.90;53.50;;;;;;5107752;28;19994;-61
2021/12/16 11:28:45;;;;;;;;;;;21.90;53.60;;;;;;5097680;28;20382;-60
2021/12/16 11:31:17;;;;;;;;;;;21.90;53.60;;;;;;5114065;28;19907;-62
2021/12/16 11:33:50;;;;;;;;;;;21.90;53.60;;;;;;5113885;28;19918;-60
2021/12/16 11:36:18;;;;;;;;;;;21.90;53.60;;;;;;5114046;28;19953;-61
2021/12/16 11:38:48;;;;;;;;;;;21.90;53.60;;;;;;5113506;28;20413;-63
2021/12/16 11:41:19;;;;;;;;;;;21.90;53.70;;;;;;5113904;28;20395;-61
2021/12/16 11:43:53;;;;;;;;;;;21.90;53.70;;;;;;5113566;28;19960;-63
2021/12/16 11:46:18;;;;;;;;;;;21.90;53.70;;;;;;5113921;28;19918;-63
2021/12/16 11:48:44;;;;;;;;;;;21.90;53.70;;;;;;5113927;28;19912;-60
2021/12/16 11:51:36;;;;;;;;;;;22.00;53.70;;;;;;5113929;28;20018;-61
2021/12/16 11:54:04;;;;;;;;;;;22.00;53.70;;;;;;5108576;28;19935;-60
2021/12/16 11:56:35;;;;;;;;;;;22.00;53.70;;;;;;5099605;28;19915;-61
2021/12/16 11:59:00;;;;;;;;;;;22.00;53.70;;;;;;5089506;28;20411;-61
2021/12/16 12:01:26;;;;;;;;;;;21.90;53.60;;;;;;5090522;28;19967;-61
2021/12/16 12:03:59;;;;;;;;;;;21.90;53.60;;;;;;5072509;28;20307;-61
2021/12/16 12:06:26;;;;;;;;;;;22.00;53.60;;;;;;5090244;28;20068;-60
2021/12/16 12:08:53;;;;;;;;;;;21.90;54.20;;;;;;5090306;28;19912;-60
2021/12/16 12:11:24;;;;;;;;;;;21.90;53.50;;;;;;5090153;28;19912;-61
2021/12/16 12:13:54;;;;;;;;;;;21.90;53.60;;;;;;5090443;28;19909;-60
2021/12/16 12:16:21;;;;;;;;;;;21.90;53.50;;;;;;5090137;28;19916;-61
2021/12/16 12:18:49;;;;;;;;;;;21.90;53.60;;;;;;5090122;28;19957;-60
2021/12/16 12:21:24;;;;;;;;;;;21.90;53.50;;;;;;5089266;28;19928;-61
2021/12/16 12:23:51;;;;;;;;;;;21.90;53.50;;;;;;5089699;28;19916;-60
2021/12/16 12:26:17;;;;;;;;;;;21.80;53.50;;;;;;5088625;28;19936;-60
2021/12/16 12:28:44;;;;;;;;;;;21.80;53.50;;;;;;5090101;28;19912;-60
2021/12/16 12:31:10;;;;;;;;;;;21.80;53.60;;;;;;5089905;28;19969;-59
2021/12/16 12:33:36;;;;;;;;;;;21.80;53.60;;;;;;5090110;28;19912;-61
2021/12/16 12:36:01;;;;;;;;;;;21.80;53.60;;;;;;5089234;28;20042;-61
2021/12/16 12:38:27;;;;;;;;;;;21.80;53.60;;;;;;5089771;28;19919;-62
2021/12/16 12:40:53;;;;;;;;;;;21.80;53.60;;;;;;5089836;28;20011;-61
2021/12/16 12:43:18;;;;;;;;;;;21.80;53.60;;;;;;5089702;28;20474;-61
2021/12/16 12:45:44;;;;;;;;;;;21.80;53.50;;;;;;5088872;28;20384;-61
2021/12/16 12:48:11;;;;;;;;;;;21.80;53.50;;;;;;5089640;28;19977;-60
2021/12/16 12:50:38;;;;;;;;;;;21.90;53.60;;;;;;5089265;28;20568;-61
2021/12/16 12:53:15;;;;;;;;;;;21.90;53.60;;;;;;5089860;28;20443;-61
2021/12/16 12:55:40;;;;;;;;;;;21.90;53.60;;;;;;5089792;28;19920;-60
2021/12/16 12:58:08;;;;;;;;;;;21.90;53.60;;;;;;5089264;28;20322;-60
2021/12/16 13:00:36;;;;;;;;;;;21.90;53.60;;;;;;5089460;28;19920;-60
2021/12/16 13:03:08;;;;;;;;;;;21.90;53.50;;;;;;5087132;28;20319;-62
2021/12/16 13:05:33;;;;;;;;;;;21.90;53.50;;;;;;5086351;28;19908;-60
2021/12/16 13:08:01;;;;;;;;;;;21.90;53.50;;;;;;5090441;28;19953;-60
2021/12/16 13:10:35;;;;;;;;;;;21.90;53.60;;;;;;5073767;28;19994;-59
2021/12/16 13:13:27;;;;;;;;;;;21.90;53.50;;;;;;5091914;28;19908;-60
2021/12/16 13:16:59;;;;;;;;;;;21.90;53.50;;;;;;5091877;28;19992;-59
2021/12/16 13:27:21;;;;;;;;;;;21.90;53.50;;;;;;5029176;28;20323;-60
2021/12/16 13:30:18;;;;;;;;;;;21.90;53.40;;;;;;5029385;28;20390;-60
2021/12/16 13:33:23;;;;;;;;;;;21.90;53.50;;;;;;5029351;28;19919;-61
2021/12/16 13:36:02;;;;;;;;;;;21.90;53.40;;;;;;5019374;28;19909;-60
2021/12/16 13:38:35;;;;;;;;;;;21.90;53.50;;;;;;5029256;28;19909;-59
2021/12/16 13:41:06;;;;;;;;;;;21.90;53.40;;;;;;5029029;28;19964;-59
2021/12/16 13:43:31;;;;;;;;;;;21.90;53.40;;;;;;5029245;28;19931;-61
2021/12/16 14:07:13;;;;;;;;;;;21.90;53.40;;;;;;4993543;28;20008;-61
2021/12/16 14:09:51;;;;;;;;;;;21.90;53.30;;;;;;4992007;28;19910;-62
2021/12/16 14:15:18;;;;;;;;;;;21.90;53.30;;;;;;5003612;28;19920;-61
2021/12/16 14:26:53;;;;;;;;;;;21.90;53.30;;;;;;4995539;28;19914;-62
2021/12/16 14:35:25;;;;;;;;;;;22.00;53.30;;;;;;5052308;28;19927;-61
2021/12/16 14:38:08;;;;;;;;;;;21.90;53.30;;;;;;5035655;28;19912;-60
2021/12/16 14:40:52;;;;;;;;;;;22.00;53.30;;;;;;5049230;28;19921;-61
2021/12/16 14:43:35;;;;;;;;;;;22.00;53.30;;;;;;5012515;28;19932;-72
2021/12/16 14:46:04;;;;;;;;;;;22.00;53.30;;;;;;5011997;28;19921;-60
2021/12/16 14:48:35;;;;;;;;;;;21.90;53.20;;;;;;5012395;28;19916;-61
2021/12/16 14:51:11;;;;;;;;;;;22.00;53.30;;;;;;5027058;28;20445;-60
2021/12/16 14:53:37;;;;;;;;;;;22.00;53.30;;;;;;5032053;28;19909;-61
2021/12/16 14:56:02;;;;;;;;;;;22.00;53.30;;;;;;5032007;28;20316;-60
2021/12/16 14:58:27;;;;;;;;;;;22.00;53.20;;;;;;5031916;28;19913;-60
2021/12/16 15:00:55;;;;;;;;;;;22.00;53.30;;;;;;5031324;28;19964;-61
2021/12/16 15:03:23;;;;;;;;;;;22.00;53.20;;;;;;5031970;28;19909;-62
2021/12/16 15:05:50;;;;;;;;;;;22.00;53.30;;;;;;5031799;28;20329;-61
2021/12/16 15:08:20;;;;;;;;;;;22.00;53.20;;;;;;5036674;28;20131;-62
2021/12/16 15:10:46;;;;;;;;;;;22.00;53.20;;;;;;5073748;28;19917;-61
2021/12/16 15:13:22;;;;;;;;;;;22.00;53.20;;;;;;5088605;28;19915;-62
2021/12/16 15:42:58;;;;;;;;;;;22.00;53.20;;;;;;5050965;28;20007;-60
2021/12/16 15:45:44;;;;;;;;;;;22.00;53.10;;;;;;5050617;28;19948;-60
2021/12/16 15:48:11;;;;;;;;;;;22.00;53.20;;;;;;5050403;28;19913;-61
2021/12/16 15:50:39;;;;;;;;;;;22.00;53.20;;;;;;5050947;28;19919;-61
2021/12/16 15:53:06;;;;;;;;;;;22.00;53.10;;;;;;5050815;28;20383;-61
2021/12/16 15:55:43;;;;;;;;;;;22.00;53.10;;;;;;5050886;28;19944;-61
2021/12/16 15:58:11;;;;;;;;;;;22.00;53.10;;;;;;5050365;28;20385;-64
2021/12/16 16:00:41;;;;;;;;;;;22.00;53.10;;;;;;5044366;28;20348;-62
2021/12/16 16:03:08;;;;;;;;;;;22.00;53.10;;;;;;5030674;28;19944;-63
2021/12/16 16:05:36;;;;;;;;;;;22.00;53.10;;;;;;5030682;28;19909;-63
2021/12/16 16:08:04;;;;;;;;;;;22.00;53.00;;;;;;5030444;28;19948;-62
2021/12/16 16:10:29;;;;;;;;;;;22.00;53.00;;;;;;5030724;28;19919;-60
2021/12/16 16:13:04;;;;;;;;;;;22.00;53.00;;;;;;5029997;28;19917;-62
2021/12/16 16:15:29;;;;;;;;;;;22.00;53.00;;;;;;5065473;28;19908;-60
2021/12/16 16:18:13;;;;;;;;;;;22.00;53.00;;;;;;5072650;28;19916;-61
2021/12/16 16:20:41;;;;;;;;;;;22.00;53.00;;;;;;5071474;28;19928;-60
2021/12/16 16:23:08;;;;;;;;;;;22.00;53.00;;;;;;5070153;28;19907;-61
2021/12/16 16:25:35;;;;;;;;;;;22.00;53.00;;;;;;5113112;28;19915;-61
2021/12/16 16:28:02;;;;;;;;;;;22.00;53.00;;;;;;5112406;28;20010;-59
2021/12/16 16:30:28;;;;;;;;;;;22.00;53.10;;;;;;5113580;28;19953;-58
2021/12/16 16:32:58;;;;;;;;;;;22.00;53.10;;;;;;5112909;28;19912;-60
2021/12/16 16:35:24;;;;;;;;;;;22.00;53.20;;;;;;5113077;28;19941;-59
2021/12/16 16:37:50;;;;;;;;;;;22.00;53.20;;;;;;5113043;28;20294;-59
2021/12/16 16:40:15;;;;;;;;;;;22.00;53.30;;;;;;5112856;28;19927;-58
